createdAt,value
2018-12-06T00:01:35.537Z,69.90
2018-12-06T00:04:03.651Z,71.36
2018-12-06T00:06:31.718Z,70.99
2018-12-06T00:08:59.782Z,69.87
2018-12-06T00:11:27.869Z,69.23
2018-12-06T00:13:55.976Z,67.80
2018-12-06T00:16:24.098Z,70.57
2018-12-06T00:19:10.409Z,66.61
2018-12-06T00:21:38.538Z,69.15
2018-12-06T00:24:06.781Z,66.52
2018-12-06T00:26:34.963Z,66.99
2018-12-06T00:29:03.159Z,65.88
2018-12-06T00:31:31.209Z,65.71
2018-12-06T00:33:59.254Z,65.20
2018-12-06T00:36:27.396Z,68.18
2018-12-06T00:38:55.487Z,66.34
2018-12-06T00:41:23.581Z,64.28
2018-12-06T00:43:51.717Z,64.59
2018-12-06T00:46:19.926Z,65.26
2018-12-06T00:48:47.969Z,66.19
2018-12-06T00:51:16.006Z,66.27
2018-12-06T00:53:44.068Z,66.68
2018-12-06T00:56:12.097Z,67.21
2018-12-06T00:58:40.151Z,67.86
2018-12-06T01:01:08.298Z,70.32
2018-12-06T01:03:36.419Z,69.95
2018-12-06T01:06:04.538Z,64.54
2018-12-06T01:08:32.585Z,67.45
2018-12-06T01:11:00.624Z,64.59
2018-12-06T01:13:28.662Z,65.90
2018-12-06T01:15:56.713Z,66.02
2018-12-06T01:18:24.823Z,63.74
2018-12-06T01:20:52.866Z,68.43
2018-12-06T01:23:20.939Z,66.06
2018-12-06T01:25:48.987Z,67.32
2018-12-06T01:28:17.094Z,70.03
2018-12-06T01:30:45.206Z,70.45
2018-12-06T01:33:13.243Z,69.02
2018-12-06T01:35:41.303Z,65.88
2018-12-06T01:38:09.347Z,67.78
2018-12-06T01:40:37.471Z,66.78
2018-12-06T01:43:05.589Z,66.30
2018-12-06T01:45:33.606Z,69.22
2018-12-06T01:48:01.647Z,66.55
2018-12-06T01:50:29.746Z,67.70
2018-12-06T01:52:57.785Z,66.23
2018-12-06T01:55:25.982Z,66.29
2018-12-06T01:57:54.021Z,64.94
2018-12-06T02:00:23.143Z,65.72
2018-12-06T02:02:51.236Z,67.09
2018-12-06T02:05:19.281Z,64.13
2018-12-06T02:07:47.353Z,62.65
2018-12-06T02:10:15.364Z,67.08
2018-12-06T02:12:43.412Z,67.36
2018-12-06T02:15:11.505Z,66.99
2018-12-06T02:17:39.548Z,64.93
2018-12-06T02:20:07.632Z,64.06
2018-12-06T02:22:35.777Z,63.34
2018-12-06T02:25:03.925Z,64.65
2018-12-06T02:27:32.116Z,61.28
2018-12-06T02:30:00.260Z,62.29
2018-12-06T02:32:28.297Z,63.36
2018-12-06T02:34:56.416Z,66.00
2018-12-06T02:37:24.614Z,65.60
2018-12-06T02:39:52.697Z,64.62
2018-12-06T02:42:20.741Z,61.10
2018-12-06T02:44:48.780Z,61.92
2018-12-06T02:47:16.876Z,62.57
2018-12-06T02:49:44.909Z,61.42
2018-12-06T02:52:13.004Z,59.68
2018-12-06T02:54:41.135Z,59.62
2018-12-06T02:57:09.194Z,61.74
2018-12-06T02:59:37.226Z,61.20
2018-12-06T03:02:05.353Z,61.96
2018-12-06T03:04:33.380Z,63.38
2018-12-06T03:07:01.490Z,63.94
2018-12-06T03:09:29.565Z,61.09
2018-12-06T03:11:57.594Z,60.82
2018-12-06T03:14:25.697Z,62.46
2018-12-06T03:16:53.778Z,62.34
2018-12-06T03:19:21.804Z,62.44
2018-12-06T03:21:50.138Z,63.10
2018-12-06T03:24:18.158Z,60.92
2018-12-06T03:26:46.197Z,59.97
2018-12-06T03:29:14.245Z,60.82
2018-12-06T03:31:42.342Z,61.37
2018-12-06T03:34:10.384Z,61.81
2018-12-06T03:36:38.414Z,61.32
2018-12-06T03:39:07.708Z,60.87
2018-12-06T03:41:35.912Z,59.94
2018-12-06T03:44:04.025Z,59.77
2018-12-06T03:46:32.194Z,62.62
2018-12-06T03:49:00.244Z,61.74
2018-12-06T03:51:28.285Z,60.11
2018-12-06T03:53:56.329Z,61.68
2018-12-06T03:56:24.352Z,64.72
2018-12-06T03:58:52.381Z,62.77
2018-12-06T04:01:20.536Z,61.05
2018-12-06T04:03:48.573Z,61.20
2018-12-06T04:06:16.669Z,61.65
2018-12-06T04:08:44.709Z,66.57
2018-12-06T04:11:12.750Z,63.67
2018-12-06T04:13:40.782Z,62.62
2018-12-06T04:16:08.828Z,64.19
2018-12-06T04:18:36.853Z,64.79
2018-12-06T04:21:04.893Z,64.20
2018-12-06T04:23:32.984Z,64.81
2018-12-06T04:26:01.109Z,64.07
2018-12-06T04:28:29.141Z,66.04
2018-12-06T04:30:57.189Z,64.14
2018-12-06T04:33:25.229Z,63.18
2018-12-06T04:35:53.358Z,62.37
2018-12-06T04:38:21.460Z,60.32
2018-12-06T04:40:49.503Z,60.68
2018-12-06T04:43:17.625Z,61.38
2018-12-06T04:45:45.761Z,61.44
2018-12-06T04:48:21.619Z,63.15
2018-12-06T04:50:43.959Z,62.95
2018-12-06T04:53:11.989Z,60.88
2018-12-06T04:55:40.033Z,60.13
2018-12-06T04:58:08.495Z,60.57
2018-12-06T05:00:36.534Z,62.22
2018-12-06T05:03:04.659Z,62.11
2018-12-06T05:05:32.692Z,63.77
2018-12-06T05:08:00.745Z,61.38
2018-12-06T05:10:28.816Z,60.88
2018-12-06T05:12:56.858Z,63.01
2018-12-06T05:15:25.077Z,61.17
2018-12-06T05:17:53.189Z,60.14
2018-12-06T05:20:21.284Z,60.13
2018-12-06T05:22:49.367Z,62.65
2018-12-06T05:25:17.402Z,61.68
2018-12-06T05:27:45.470Z,62.41
2018-12-06T05:30:13.514Z,63.02
2018-12-06T05:32:41.598Z,64.36
2018-12-06T05:35:09.724Z,62.07
2018-12-06T05:37:37.881Z,61.84
2018-12-06T05:40:06.053Z,61.15
2018-12-06T05:42:34.186Z,60.25
2018-12-06T05:45:02.206Z,61.27
2018-12-06T05:47:30.279Z,63.46
2018-12-06T05:49:58.369Z,60.76
2018-12-06T05:52:26.428Z,60.13
2018-12-06T05:54:54.477Z,62.99
2018-12-06T05:57:22.574Z,62.63
2018-12-06T05:59:50.689Z,61.10
2018-12-06T06:02:18.752Z,61.71
2018-12-06T06:04:46.879Z,65.96
2018-12-06T06:07:15.016Z,65.52
2018-12-06T06:09:43.075Z,63.41
2018-12-06T06:12:11.121Z,64.70
2018-12-06T06:14:39.477Z,62.84
2018-12-06T06:17:07.559Z,62.55
2018-12-06T06:19:35.612Z,61.48
2018-12-06T06:22:04.775Z,61.99
2018-12-06T06:24:32.846Z,63.14
2018-12-06T06:27:00.892Z,64.44
2018-12-06T06:29:28.948Z,61.73
2018-12-06T06:31:57.023Z,62.89
2018-12-06T06:34:25.177Z,61.90
2018-12-06T06:36:53.234Z,61.66
2018-12-06T06:39:21.273Z,61.99
2018-12-06T06:41:49.306Z,62.96
2018-12-06T06:44:17.730Z,64.34
2018-12-06T06:46:45.882Z,64.07
2018-12-06T06:49:14.234Z,62.22
2018-12-06T06:51:42.409Z,63.62
2018-12-06T06:54:10.465Z,63.60
2018-12-06T06:56:38.596Z,65.07
2018-12-06T06:59:07.272Z,67.88
2018-12-06T07:01:35.947Z,67.81
2018-12-06T07:04:05.292Z,70.07
2018-12-06T07:06:33.764Z,69.03
2018-12-06T07:09:02.975Z,70.38
2018-12-06T07:11:32.712Z,68.94
2018-12-06T07:14:01.487Z,71.00
2018-12-06T07:16:30.434Z,71.16
2018-12-06T07:18:59.221Z,70.95
2018-12-06T07:21:28.056Z,68.01
2018-12-06T07:23:57.185Z,69.33
2018-12-06T07:26:26.028Z,69.55
2018-12-06T07:28:54.061Z,70.69
2018-12-06T07:31:22.748Z,68.37
2018-12-06T07:33:51.737Z,67.35
2018-12-06T07:36:19.857Z,68.13
2018-12-06T07:38:48.578Z,66.43
2018-12-06T07:41:17.308Z,69.77
2018-12-06T07:43:45.990Z,69.73
2018-12-06T07:46:14.695Z,70.14
2018-12-06T07:48:43.422Z,70.62
2018-12-06T07:51:12.131Z,70.74
2018-12-06T07:53:40.658Z,73.21
2018-12-06T07:56:10.218Z,73.85
2018-12-06T07:58:38.944Z,73.03
2018-12-06T08:01:07.669Z,70.63
2018-12-06T08:03:36.231Z,70.12
2018-12-06T08:06:05.019Z,68.11
2018-12-06T08:08:33.640Z,69.82
2018-12-06T08:11:02.353Z,72.49
2018-12-06T08:13:30.961Z,72.23
2018-12-06T08:15:59.683Z,70.67
2018-12-06T08:18:28.276Z,68.69
2018-12-06T08:20:57.210Z,69.51
2018-12-06T08:23:26.106Z,70.86
2018-12-06T08:25:54.864Z,69.32
2018-12-06T08:28:23.532Z,68.01
2018-12-06T08:30:52.327Z,67.52
2018-12-06T08:33:20.919Z,66.84
2018-12-06T08:35:49.234Z,65.52
2018-12-06T08:38:17.888Z,63.68
2018-12-06T08:40:46.501Z,66.39
2018-12-06T08:43:15.362Z,65.96
2018-12-06T08:45:44.046Z,67.08
2018-12-06T08:48:12.694Z,66.89
2018-12-06T08:50:41.416Z,69.55
2018-12-06T08:53:09.545Z,67.88
2018-12-06T08:55:38.408Z,69.49
2018-12-06T08:58:07.451Z,68.90
2018-12-06T09:00:35.613Z,71.11
2018-12-06T09:03:04.228Z,71.58
2018-12-06T09:05:32.293Z,73.26
2018-12-06T09:08:00.390Z,68.01
2018-12-06T09:10:28.442Z,66.03
2018-12-06T09:12:56.477Z,65.13
2018-12-06T09:15:24.584Z,63.15
2018-12-06T09:17:52.771Z,63.69
2018-12-06T09:20:20.884Z,62.54
2018-12-06T09:22:48.964Z,61.05
2018-12-06T09:25:20.960Z,65.35
2018-12-06T09:27:47.334Z,64.33
2018-12-06T09:30:15.542Z,65.89
2018-12-06T09:32:43.588Z,66.18
2018-12-06T09:35:11.705Z,66.62
2018-12-06T09:37:40.790Z,70.92
2018-12-06T09:40:08.908Z,69.96
2018-12-06T09:42:37.068Z,69.96
2018-12-06T09:45:06.218Z,69.71
2018-12-06T09:47:34.353Z,70.30
2018-12-06T09:50:02.469Z,68.32
2018-12-06T09:52:30.648Z,70.66
2018-12-06T09:54:58.748Z,69.65
2018-12-06T09:57:26.829Z,66.99
2018-12-06T09:59:54.863Z,68.41
2018-12-06T10:02:22.898Z,67.88
2018-12-06T10:04:51.002Z,69.23
2018-12-06T10:07:19.141Z,69.95
2018-12-06T10:09:47.187Z,72.39
2018-12-06T10:12:15.259Z,69.12
2018-12-06T10:14:43.315Z,71.97
2018-12-06T10:17:11.386Z,72.15
2018-12-06T10:19:39.584Z,69.25
2018-12-06T10:22:07.798Z,68.66
2018-12-06T10:24:35.837Z,68.34
2018-12-06T10:27:03.974Z,68.47
2018-12-06T10:29:32.083Z,69.17
2018-12-06T10:32:00.134Z,70.40
2018-12-06T10:34:28.250Z,69.59
2018-12-06T10:36:56.302Z,70.29
2018-12-06T10:39:24.368Z,71.00
2018-12-06T10:41:52.470Z,70.40
2018-12-06T10:44:31.380Z,69.49
2018-12-06T10:46:59.533Z,68.78
2018-12-06T10:49:27.582Z,67.40
2018-12-06T10:51:55.683Z,68.35
2018-12-06T10:54:23.838Z,66.38
2018-12-06T10:56:51.981Z,68.78
2018-12-06T10:59:20.035Z,68.58
2018-12-06T11:01:53.434Z,70.78
2018-12-06T11:04:23.485Z,69.34
2018-12-06T11:06:51.572Z,71.94
2018-12-06T11:09:19.622Z,69.59
2018-12-06T11:11:48.666Z,68.54
2018-12-06T11:14:16.798Z,69.26
2018-12-06T11:16:44.853Z,69.90
2018-12-06T11:19:12.981Z,70.44
2018-12-06T11:21:41.092Z,70.05
2018-12-06T11:27:17.562Z,71.14
2018-12-06T11:29:45.598Z,72.33
2018-12-06T11:32:13.754Z,71.53
2018-12-06T11:34:41.806Z,71.16
2018-12-06T11:37:09.849Z,70.75
2018-12-06T11:39:37.922Z,70.06
2018-12-06T11:42:06.056Z,69.76
2018-12-06T11:44:34.160Z,70.65
2018-12-06T11:47:03.640Z,71.34
2018-12-06T11:49:31.703Z,73.64
2018-12-06T11:52:00.057Z,71.75
2018-12-06T11:54:28.149Z,69.75
2018-12-06T11:56:56.181Z,67.58
2018-12-06T11:59:24.313Z,72.74
2018-12-06T12:01:52.329Z,70.39
2018-12-06T12:04:20.433Z,69.88
2018-12-06T12:06:48.480Z,70.19
2018-12-06T12:09:16.537Z,68.70
2018-12-06T12:11:44.577Z,69.96
2018-12-06T12:14:12.690Z,71.82
2018-12-06T12:16:40.727Z,71.57
2018-12-06T12:19:08.768Z,71.44
2018-12-06T12:21:36.801Z,73.24
2018-12-06T12:24:05.923Z,72.67
2018-12-06T12:26:34.036Z,69.97
2018-12-06T12:29:02.094Z,71.92
2018-12-06T12:31:30.130Z,71.55
2018-12-06T12:33:58.258Z,69.24
2018-12-06T12:36:26.284Z,71.80
2018-12-06T12:38:54.608Z,70.85
2018-12-06T12:41:22.646Z,73.35
2018-12-06T12:43:50.898Z,72.27
2018-12-06T12:46:18.969Z,73.41
2018-12-06T12:48:48.039Z,72.83
2018-12-06T12:51:16.222Z,74.70
2018-12-06T12:53:44.289Z,76.09
2018-12-06T12:56:12.400Z,75.27
2018-12-06T12:58:40.604Z,74.86
2018-12-06T13:01:08.649Z,74.34
2018-12-06T13:03:36.693Z,76.00
2018-12-06T13:06:04.832Z,73.31
2018-12-06T13:08:32.876Z,74.73
2018-12-06T13:11:01.023Z,72.51
2018-12-06T13:13:29.168Z,74.08
2018-12-06T13:15:57.249Z,71.67
2018-12-06T13:18:25.357Z,75.09
2018-12-06T13:20:53.474Z,74.62
2018-12-06T13:23:21.636Z,75.36
2018-12-06T13:25:49.726Z,75.65
2018-12-06T13:28:18.026Z,75.30
2018-12-06T13:30:46.091Z,74.13
2018-12-06T13:33:14.116Z,74.25
2018-12-06T13:35:42.310Z,72.89
2018-12-06T13:38:10.373Z,73.55
2018-12-06T13:40:38.422Z,72.60
2018-12-06T13:43:06.539Z,74.11
2018-12-06T13:45:34.637Z,70.69
2018-12-06T13:48:02.706Z,72.12
2018-12-06T13:50:30.805Z,72.80
2018-12-06T13:52:58.971Z,72.71
2018-12-06T13:55:27.014Z,72.60
2018-12-06T13:57:55.145Z,73.36
2018-12-06T14:00:23.232Z,72.23
2018-12-06T14:02:51.289Z,68.74
2018-12-06T14:05:19.408Z,71.06
2018-12-06T14:07:47.447Z,70.48
2018-12-06T14:10:15.622Z,74.08
2018-12-06T14:12:43.658Z,71.71
2018-12-06T14:15:11.681Z,73.86
2018-12-06T14:17:39.725Z,71.85
2018-12-06T14:20:09.086Z,72.72
2018-12-06T14:22:37.133Z,69.48
2018-12-06T14:25:05.301Z,71.04
2018-12-06T14:27:33.441Z,70.42
2018-12-06T14:30:01.588Z,69.70
2018-12-06T14:32:29.636Z,71.32
2018-12-06T14:34:57.787Z,72.16
2018-12-06T14:37:25.856Z,73.63
2018-12-06T14:39:54.034Z,72.33
2018-12-06T14:42:22.213Z,70.17
2018-12-06T14:44:50.327Z,70.62
2018-12-06T14:47:18.385Z,70.12
2018-12-06T14:49:46.501Z,72.77
2018-12-06T14:52:14.540Z,70.93
2018-12-06T14:54:42.689Z,70.87
2018-12-06T14:57:12.458Z,70.93
2018-12-06T14:59:40.664Z,71.45
2018-12-06T15:02:08.998Z,71.90
2018-12-06T15:04:37.119Z,70.54
2018-12-06T15:07:05.234Z,69.80
2018-12-06T15:09:33.391Z,70.93
2018-12-06T15:12:01.558Z,68.84
2018-12-06T15:14:29.842Z,71.56
2018-12-06T15:16:57.921Z,73.10
2018-12-06T15:19:26.027Z,70.76
2018-12-06T15:21:54.154Z,70.03
2018-12-06T15:24:22.495Z,69.87
2018-12-06T15:26:50.629Z,68.49
2018-12-06T15:29:18.684Z,70.07
2018-12-06T15:31:46.809Z,69.61
2018-12-06T15:34:14.854Z,69.18
2018-12-06T15:36:42.944Z,69.00
2018-12-06T15:39:11.703Z,68.89
2018-12-06T15:41:39.751Z,68.75
2018-12-06T15:44:07.806Z,71.88
2018-12-06T15:46:36.180Z,69.58
2018-12-06T15:49:04.541Z,70.23
2018-12-06T15:51:32.659Z,70.17
2018-12-06T15:54:00.757Z,70.86
2018-12-06T15:56:29.095Z,69.81
2018-12-06T15:58:57.141Z,71.04
2018-12-06T16:01:25.304Z,72.56
2018-12-06T16:03:53.401Z,72.09
2018-12-06T16:06:21.501Z,69.95
2018-12-06T16:08:49.556Z,70.09
2018-12-06T16:11:17.667Z,69.65
2018-12-06T16:13:45.717Z,69.83
2018-12-06T16:16:14.038Z,68.48
2018-12-06T16:18:42.115Z,67.63
2018-12-06T16:21:10.200Z,70.01
2018-12-06T16:23:38.345Z,68.92
2018-12-06T16:26:06.512Z,68.07
2018-12-06T16:28:34.564Z,67.43
2018-12-06T16:31:02.634Z,68.13
2018-12-06T16:33:30.680Z,65.61
2018-12-06T16:35:58.743Z,68.16
2018-12-06T16:38:26.862Z,67.88
2018-12-06T16:40:55.010Z,67.89
2018-12-06T16:43:23.142Z,68.22
2018-12-06T16:45:51.334Z,69.70
2018-12-06T16:51:01.869Z,70.86
2018-12-06T16:53:30.127Z,70.30
2018-12-06T16:56:01.507Z,67.81
2018-12-06T16:58:29.546Z,70.60
2018-12-06T17:00:57.660Z,69.58
2018-12-06T17:03:25.764Z,67.86
2018-12-06T17:05:53.854Z,68.01
2018-12-06T17:08:21.884Z,69.72
2018-12-06T17:10:49.955Z,69.86
2018-12-06T17:13:17.988Z,70.33
2018-12-06T17:15:46.080Z,67.19
2018-12-06T17:18:14.289Z,68.18
2018-12-06T17:20:42.368Z,68.33
2018-12-06T17:23:10.516Z,66.16
2018-12-06T17:25:38.721Z,67.40
2018-12-06T17:28:06.820Z,69.76
2018-12-06T17:30:34.893Z,69.34
2018-12-06T17:33:02.973Z,68.85
2018-12-06T17:35:31.195Z,69.23
2018-12-06T17:37:59.247Z,70.12
2018-12-06T17:40:27.285Z,70.25
2018-12-06T17:42:55.442Z,69.96
2018-12-06T17:45:23.500Z,70.90
2018-12-06T17:47:51.570Z,71.88
2018-12-06T17:50:19.790Z,69.53
2018-12-06T17:52:47.914Z,69.62
2018-12-06T17:55:15.972Z,69.62
2018-12-06T17:57:44.098Z,70.97
2018-12-06T18:00:12.258Z,69.54
2018-12-06T18:02:40.656Z,70.59
2018-12-06T18:05:09.019Z,72.51
2018-12-06T18:07:37.074Z,70.17
2018-12-06T18:10:06.018Z,70.24
2018-12-06T18:12:34.085Z,70.06
2018-12-06T18:15:02.141Z,70.89
2018-12-06T18:17:30.268Z,70.93
2018-12-06T18:19:58.375Z,71.66
2018-12-06T18:22:26.545Z,72.91
2018-12-06T18:24:54.589Z,72.54
2018-12-06T18:27:22.711Z,70.73
2018-12-06T18:29:50.799Z,70.22
2018-12-06T18:32:18.865Z,71.07
2018-12-06T18:34:46.928Z,71.18
2018-12-06T18:37:15.154Z,73.57
2018-12-06T18:39:43.350Z,71.49
2018-12-06T18:42:11.490Z,69.54
2018-12-06T18:44:39.724Z,68.58
2018-12-06T18:47:08.229Z,71.28
2018-12-06T18:49:36.475Z,69.97
2018-12-06T18:52:04.620Z,73.44
2018-12-06T18:54:32.673Z,71.63
2018-12-06T18:57:00.729Z,74.50
2018-12-06T18:59:28.881Z,73.02
2018-12-06T19:01:57.006Z,71.42
2018-12-06T19:04:25.135Z,74.56
2018-12-06T19:06:53.252Z,71.37
2018-12-06T19:09:21.298Z,70.70
2018-12-06T19:11:49.446Z,70.33
2018-12-06T19:14:21.719Z,69.96
2018-12-06T19:16:47.590Z,72.63
2018-12-06T19:19:15.699Z,72.33
2018-12-06T19:21:43.755Z,70.73
2018-12-06T19:24:11.970Z,72.74
2018-12-06T19:26:40.036Z,72.88
2018-12-06T19:29:08.123Z,74.28
2018-12-06T19:31:36.179Z,73.00
2018-12-06T19:34:04.344Z,73.38
2018-12-06T19:36:32.482Z,72.35
2018-12-06T19:39:00.592Z,73.30
2018-12-06T19:41:28.692Z,73.08
2018-12-06T19:43:56.782Z,74.28
2018-12-06T19:46:24.912Z,74.29
2018-12-06T19:48:52.958Z,73.64
2018-12-06T19:51:21.036Z,73.01
2018-12-06T19:53:49.098Z,74.22
2018-12-06T19:56:17.292Z,74.50
2018-12-06T19:58:45.353Z,71.72
2018-12-06T20:01:14.449Z,73.26
2018-12-06T20:03:42.754Z,71.39
2018-12-06T20:06:10.822Z,71.44
2018-12-06T20:08:38.892Z,73.26
2018-12-06T20:11:07.029Z,73.50
2018-12-06T20:13:35.166Z,74.07
2018-12-06T20:16:03.252Z,74.51
2018-12-06T20:18:31.288Z,72.62
2018-12-06T20:20:59.438Z,72.61
2018-12-06T20:23:27.563Z,72.61
2018-12-06T20:25:55.680Z,73.71
2018-12-06T20:28:26.666Z,74.32
2018-12-06T20:30:53.834Z,73.60
2018-12-06T20:33:22.122Z,73.64
2018-12-06T20:35:50.595Z,73.79
2018-12-06T20:38:18.741Z,73.79
2018-12-06T20:40:46.809Z,74.97
2018-12-06T20:43:14.933Z,74.04
2018-12-06T20:45:43.083Z,74.04
2018-12-06T20:48:11.211Z,71.40
2018-12-06T20:50:39.284Z,72.89
2018-12-06T20:53:07.449Z,74.99
2018-12-06T20:55:35.565Z,74.36
2018-12-06T20:58:03.608Z,74.40
2018-12-06T21:00:31.714Z,74.69
2018-12-06T21:02:59.770Z,72.80
2018-12-06T21:05:28.069Z,74.25
2018-12-06T21:07:56.216Z,73.02
2018-12-06T21:10:24.515Z,74.40
2018-12-06T21:12:52.592Z,72.88
2018-12-06T21:15:20.947Z,73.00
2018-12-06T21:17:49.641Z,73.71
2018-12-06T21:20:17.719Z,72.77
2018-12-06T21:22:45.810Z,73.30
2018-12-06T21:25:13.922Z,73.69
2018-12-06T21:27:42.064Z,75.15
2018-12-06T21:30:10.714Z,72.38
2018-12-06T21:32:38.760Z,74.08
2018-12-06T21:35:06.910Z,75.02
2018-12-06T21:37:34.933Z,73.59
2018-12-06T21:40:03.204Z,75.62
2018-12-06T21:42:31.710Z,75.56
2018-12-06T21:44:59.766Z,75.79
2018-12-06T21:47:27.829Z,75.40
2018-12-06T21:49:56.047Z,75.54
2018-12-06T21:52:24.299Z,76.72
2018-12-06T21:54:52.417Z,73.80
2018-12-06T21:57:20.762Z,74.83
2018-12-06T21:59:48.830Z,75.80
2018-12-06T22:02:26.655Z,76.65
2018-12-06T22:04:55.693Z,76.10
2018-12-06T22:07:23.942Z,76.31
2018-12-06T22:09:51.975Z,73.62
2018-12-06T22:12:20.136Z,74.84
2018-12-06T22:14:48.591Z,73.52
2018-12-06T22:17:16.860Z,74.57
2018-12-06T22:19:45.047Z,74.23
2018-12-06T22:22:13.559Z,75.42
2018-12-06T22:24:41.659Z,75.38
2018-12-06T22:27:10.031Z,72.72
2018-12-06T22:32:18.914Z,73.44
2018-12-06T22:34:47.255Z,74.34
2018-12-06T22:37:15.692Z,76.46
2018-12-06T22:39:43.815Z,75.96
2018-12-06T22:42:12.086Z,74.04
2018-12-06T22:44:40.134Z,77.55
2018-12-06T22:47:08.269Z,77.84
2018-12-06T22:49:36.337Z,75.78
2018-12-06T22:52:04.470Z,77.03
2018-12-06T22:54:32.604Z,76.34
2018-12-06T22:57:00.722Z,76.61
2018-12-06T22:59:28.765Z,76.04
2018-12-06T23:01:59.278Z,76.61
2018-12-06T23:04:27.397Z,77.71
2018-12-06T23:06:55.505Z,76.33
2018-12-06T23:09:23.668Z,75.26
2018-12-06T23:11:51.764Z,75.77
2018-12-06T23:14:19.852Z,76.17
2018-12-06T23:16:47.994Z,76.77
2018-12-06T23:19:16.187Z,75.95
2018-12-06T23:21:44.315Z,74.78
2018-12-06T23:24:12.350Z,75.82
2018-12-06T23:26:40.474Z,78.24
2018-12-06T23:29:08.501Z,75.78
2018-12-06T23:31:36.681Z,75.65
2018-12-06T23:34:04.803Z,77.26
2018-12-06T23:36:32.897Z,74.38
2018-12-06T23:39:00.962Z,76.04
2018-12-06T23:41:29.087Z,78.02
2018-12-06T23:43:57.160Z,74.45
2018-12-06T23:46:25.261Z,76.53
2018-12-06T23:48:53.419Z,75.42
2018-12-06T23:51:34.229Z,74.85
2018-12-06T23:54:02.312Z,74.38
2018-12-06T23:56:30.490Z,75.09
2018-12-06T23:58:58.611Z,77.24
